sensor_id;sensor_type;location;lat;lon;timestamp;P1;durP1;ratioP1;P2;durP2;ratioP2
72117;SDS011;59992;47.490;8.736;2022-11-12T00:00:46;17.90;;;8.90;;
72117;SDS011;59992;47.490;8.736;2022-11-12T00:03:35;18.10;;;8.80;;
72117;SDS011;59992;47.490;8.736;2022-11-12T00:06:23;17.50;;;8.50;;
72117;SDS011;59992;47.490;8.736;2022-11-12T00:09:11;17.10;;;9.00;;
72117;SDS011;59992;47.490;8.736;2022-11-12T00:11:59;16.10;;;8.40;;
72117;SDS011;59992;47.490;8.736;2022-11-12T00:14:51;22.10;;;8.60;;
72117;SDS011;59992;47.490;8.736;2022-11-12T00:17:40;17.10;;;8.40;;
72117;SDS011;59992;47.490;8.736;2022-11-12T00:20:29;16.70;;;8.70;;
72117;SDS011;59992;47.490;8.736;2022-11-12T00:23:17;15.40;;;8.10;;
72117;SDS011;59992;47.490;8.736;2022-11-12T00:26:05;16.00;;;8.00;;
72117;SDS011;59992;47.490;8.736;2022-11-12T00:28:54;17.20;;;7.80;;
72117;SDS011;59992;47.490;8.736;2022-11-12T00:31:42;15.20;;;8.20;;
72117;SDS011;59992;47.490;8.736;2022-11-12T00:34:30;17.10;;;8.60;;
72117;SDS011;59992;47.490;8.736;2022-11-12T00:37:19;16.20;;;8.50;;
72117;SDS011;59992;47.490;8.736;2022-11-12T00:40:09;17.00;;;8.00;;
72117;SDS011;59992;47.490;8.736;2022-11-12T00:42:58;16.50;;;8.50;;
72117;SDS011;59992;47.490;8.736;2022-11-12T00:45:46;19.40;;;9.00;;
72117;SDS011;59992;47.490;8.736;2022-11-12T00:48:34;16.40;;;8.70;;
72117;SDS011;59992;47.490;8.736;2022-11-12T00:51:22;15.50;;;8.00;;
72117;SDS011;59992;47.490;8.736;2022-11-12T00:54:10;15.90;;;8.10;;
72117;SDS011;59992;47.490;8.736;2022-11-12T00:56:58;15.50;;;7.60;;
72117;SDS011;59992;47.490;8.736;2022-11-12T00:59:46;13.90;;;7.10;;
72117;SDS011;59992;47.490;8.736;2022-11-12T01:02:35;17.20;;;8.20;;
72117;SDS011;59992;47.490;8.736;2022-11-12T01:05:23;17.30;;;8.50;;
72117;SDS011;59992;47.490;8.736;2022-11-12T01:08:11;13.10;;;7.50;;
72117;SDS011;59992;47.490;8.736;2022-11-12T01:11:04;19.20;;;8.60;;
72117;SDS011;59992;47.490;8.736;2022-11-12T01:13:55;17.10;;;8.40;;
72117;SDS011;59992;47.490;8.736;2022-11-12T01:16:44;16.70;;;8.10;;
72117;SDS011;59992;47.490;8.736;2022-11-12T01:19:33;19.00;;;8.60;;
72117;SDS011;59992;47.490;8.736;2022-11-12T01:22:21;19.10;;;8.40;;
72117;SDS011;59992;47.490;8.736;2022-11-12T01:25:09;15.70;;;8.40;;
72117;SDS011;59992;47.490;8.736;2022-11-12T01:27:57;17.20;;;8.20;;
72117;SDS011;59992;47.490;8.736;2022-11-12T01:30:45;15.50;;;7.80;;
72117;SDS011;59992;47.490;8.736;2022-11-12T01:33:33;15.80;;;8.90;;
72117;SDS011;59992;47.490;8.736;2022-11-12T01:36:21;19.10;;;9.00;;
72117;SDS011;59992;47.490;8.736;2022-11-12T01:39:10;17.90;;;7.80;;
72117;SDS011;59992;47.490;8.736;2022-11-12T01:41:58;17.40;;;8.30;;
72117;SDS011;59992;47.490;8.736;2022-11-12T01:44:46;15.90;;;7.70;;
72117;SDS011;59992;47.490;8.736;2022-11-12T01:47:37;21.80;;;9.30;;
72117;SDS011;59992;47.490;8.736;2022-11-12T01:50:25;15.60;;;7.50;;
72117;SDS011;59992;47.490;8.736;2022-11-12T01:53:17;17.60;;;9.10;;
72117;SDS011;59992;47.490;8.736;2022-11-12T01:56:07;17.00;;;8.30;;
72117;SDS011;59992;47.490;8.736;2022-11-12T01:58:58;16.10;;;7.70;;
72117;SDS011;59992;47.490;8.736;2022-11-12T02:01:49;19.20;;;8.70;;
72117;SDS011;59992;47.490;8.736;2022-11-12T02:04:38;15.70;;;7.90;;
72117;SDS011;59992;47.490;8.736;2022-11-12T02:07:28;20.10;;;9.10;;
72117;SDS011;59992;47.490;8.736;2022-11-12T02:10:18;16.40;;;8.00;;
72117;SDS011;59992;47.490;8.736;2022-11-12T02:13:07;16.70;;;8.30;;
72117;SDS011;59992;47.490;8.736;2022-11-12T02:16:14;18.00;;;8.60;;
72117;SDS011;59992;47.490;8.736;2022-11-12T02:19:03;19.40;;;9.20;;
72117;SDS011;59992;47.490;8.736;2022-11-12T02:21:53;17.10;;;8.80;;
72117;SDS011;59992;47.490;8.736;2022-11-12T02:24:41;17.60;;;8.60;;
72117;SDS011;59992;47.490;8.736;2022-11-12T02:27:29;17.40;;;8.40;;
72117;SDS011;59992;47.490;8.736;2022-11-12T02:30:18;16.60;;;8.40;;
72117;SDS011;59992;47.490;8.736;2022-11-12T02:33:17;20.20;;;8.70;;
72117;SDS011;59992;47.490;8.736;2022-11-12T02:36:05;20.60;;;8.90;;
72117;SDS011;59992;47.490;8.736;2022-11-12T02:38:54;20.60;;;9.40;;
72117;SDS011;59992;47.490;8.736;2022-11-12T02:41:43;22.60;;;9.70;;
72117;SDS011;59992;47.490;8.736;2022-11-12T02:44:31;21.50;;;8.90;;
72117;SDS011;59992;47.490;8.736;2022-11-12T02:47:19;17.10;;;8.30;;
72117;SDS011;59992;47.490;8.736;2022-11-12T02:50:07;22.20;;;9.10;;
72117;SDS011;59992;47.490;8.736;2022-11-12T02:52:56;18.70;;;9.10;;
72117;SDS011;59992;47.490;8.736;2022-11-12T02:55:44;20.50;;;9.20;;
72117;SDS011;59992;47.490;8.736;2022-11-12T02:58:32;19.60;;;10.00;;
72117;SDS011;59992;47.490;8.736;2022-11-12T03:01:20;17.70;;;8.50;;
72117;SDS011;59992;47.490;8.736;2022-11-12T03:04:08;20.60;;;10.00;;
72117;SDS011;59992;47.490;8.736;2022-11-12T03:06:57;22.50;;;9.90;;
72117;SDS011;59992;47.490;8.736;2022-11-12T03:09:45;20.50;;;8.70;;
72117;SDS011;59992;47.490;8.736;2022-11-12T03:12:33;20.90;;;9.40;;
72117;SDS011;59992;47.490;8.736;2022-11-12T03:15:21;18.90;;;8.90;;
72117;SDS011;59992;47.490;8.736;2022-11-12T03:18:10;21.90;;;9.80;;
72117;SDS011;59992;47.490;8.736;2022-11-12T03:20:59;19.80;;;9.70;;
72117;SDS011;59992;47.490;8.736;2022-11-12T03:23:47;19.40;;;8.80;;
72117;SDS011;59992;47.490;8.736;2022-11-12T03:26:35;19.80;;;8.80;;
72117;SDS011;59992;47.490;8.736;2022-11-12T03:29:23;19.40;;;9.90;;
72117;SDS011;59992;47.490;8.736;2022-11-12T03:32:12;20.50;;;9.50;;
72117;SDS011;59992;47.490;8.736;2022-11-12T03:35:00;19.30;;;8.60;;
72117;SDS011;59992;47.490;8.736;2022-11-12T03:37:48;21.70;;;9.70;;
72117;SDS011;59992;47.490;8.736;2022-11-12T03:40:36;22.80;;;9.80;;
72117;SDS011;59992;47.490;8.736;2022-11-12T03:43:24;21.90;;;10.20;;
72117;SDS011;59992;47.490;8.736;2022-11-12T03:46:12;21.00;;;9.70;;
72117;SDS011;59992;47.490;8.736;2022-11-12T03:49:00;22.20;;;9.60;;
72117;SDS011;59992;47.490;8.736;2022-11-12T03:51:48;21.20;;;9.00;;
72117;SDS011;59992;47.490;8.736;2022-11-12T03:54:36;24.10;;;10.50;;
72117;SDS011;59992;47.490;8.736;2022-11-12T03:57:25;20.70;;;9.40;;
72117;SDS011;59992;47.490;8.736;2022-11-12T04:00:14;28.10;;;10.60;;
72117;SDS011;59992;47.490;8.736;2022-11-12T04:03:02;20.30;;;9.40;;
72117;SDS011;59992;47.490;8.736;2022-11-12T04:05:51;21.70;;;8.80;;
72117;SDS011;59992;47.490;8.736;2022-11-12T04:08:57;22.00;;;9.40;;
72117;SDS011;59992;47.490;8.736;2022-11-12T04:11:45;20.60;;;9.20;;
72117;SDS011;59992;47.490;8.736;2022-11-12T04:14:33;23.10;;;9.90;;
72117;SDS011;59992;47.490;8.736;2022-11-12T04:17:21;21.00;;;9.50;;
72117;SDS011;59992;47.490;8.736;2022-11-12T04:20:34;24.00;;;9.70;;
72117;SDS011;59992;47.490;8.736;2022-11-12T04:23:45;20.60;;;9.30;;
72117;SDS011;59992;47.490;8.736;2022-11-12T04:26:33;24.90;;;10.80;;
72117;SDS011;59992;47.490;8.736;2022-11-12T04:29:21;23.10;;;10.00;;
72117;SDS011;59992;47.490;8.736;2022-11-12T04:32:28;19.70;;;10.20;;
72117;SDS011;59992;47.490;8.736;2022-11-12T04:35:17;22.80;;;10.40;;
72117;SDS011;59992;47.490;8.736;2022-11-12T04:38:05;22.40;;;10.10;;
72117;SDS011;59992;47.490;8.736;2022-11-12T04:40:53;22.00;;;10.20;;
72117;SDS011;59992;47.490;8.736;2022-11-12T04:44:00;20.60;;;9.10;;
72117;SDS011;59992;47.490;8.736;2022-11-12T04:47:07;23.70;;;10.80;;
72117;SDS011;59992;47.490;8.736;2022-11-12T04:49:55;20.90;;;9.10;;
72117;SDS011;59992;47.490;8.736;2022-11-12T04:52:43;20.80;;;10.10;;
72117;SDS011;59992;47.490;8.736;2022-11-12T04:55:32;21.90;;;10.90;;
72117;SDS011;59992;47.490;8.736;2022-11-12T04:58:20;21.60;;;10.60;;
72117;SDS011;59992;47.490;8.736;2022-11-12T05:01:08;20.10;;;9.40;;
72117;SDS011;59992;47.490;8.736;2022-11-12T05:03:57;21.70;;;9.90;;
72117;SDS011;59992;47.490;8.736;2022-11-12T05:06:45;22.60;;;9.70;;
72117;SDS011;59992;47.490;8.736;2022-11-12T05:09:39;22.00;;;10.30;;
72117;SDS011;59992;47.490;8.736;2022-11-12T05:12:27;20.10;;;10.00;;
72117;SDS011;59992;47.490;8.736;2022-11-12T05:15:16;21.70;;;9.40;;
72117;SDS011;59992;47.490;8.736;2022-11-12T05:18:04;20.50;;;9.30;;
72117;SDS011;59992;47.490;8.736;2022-11-12T05:20:52;22.50;;;10.20;;
72117;SDS011;59992;47.490;8.736;2022-11-12T05:23:41;23.10;;;10.00;;
72117;SDS011;59992;47.490;8.736;2022-11-12T05:26:29;22.60;;;10.50;;
72117;SDS011;59992;47.490;8.736;2022-11-12T05:29:17;21.60;;;11.10;;
72117;SDS011;59992;47.490;8.736;2022-11-12T05:32:05;21.40;;;9.70;;
72117;SDS011;59992;47.490;8.736;2022-11-12T05:34:55;24.70;;;10.80;;
72117;SDS011;59992;47.490;8.736;2022-11-12T05:37:43;23.70;;;10.40;;
72117;SDS011;59992;47.490;8.736;2022-11-12T05:40:31;25.20;;;11.30;;
72117;SDS011;59992;47.490;8.736;2022-11-12T05:43:19;23.20;;;10.70;;
72117;SDS011;59992;47.490;8.736;2022-11-12T05:46:08;21.80;;;10.20;;
72117;SDS011;59992;47.490;8.736;2022-11-12T05:48:56;25.10;;;11.50;;
72117;SDS011;59992;47.490;8.736;2022-11-12T05:51:45;24.40;;;11.30;;
72117;SDS011;59992;47.490;8.736;2022-11-12T05:54:33;24.40;;;10.70;;
72117;SDS011;59992;47.490;8.736;2022-11-12T05:57:21;29.10;;;11.60;;
72117;SDS011;59992;47.490;8.736;2022-11-12T06:00:10;25.10;;;12.40;;
72117;SDS011;59992;47.490;8.736;2022-11-12T06:02:59;25.00;;;11.60;;
72117;SDS011;59992;47.490;8.736;2022-11-12T06:05:47;27.10;;;11.70;;
72117;SDS011;59992;47.490;8.736;2022-11-12T06:08:35;25.20;;;11.20;;
72117;SDS011;59992;47.490;8.736;2022-11-12T06:11:23;25.20;;;11.70;;
72117;SDS011;59992;47.490;8.736;2022-11-12T06:14:11;23.60;;;11.30;;
72117;SDS011;59992;47.490;8.736;2022-11-12T06:17:00;20.90;;;10.10;;
72117;SDS011;59992;47.490;8.736;2022-11-12T06:19:48;20.70;;;9.30;;
72117;SDS011;59992;47.490;8.736;2022-11-12T06:22:36;19.80;;;8.80;;
72117;SDS011;59992;47.490;8.736;2022-11-12T06:25:24;18.90;;;8.90;;
72117;SDS011;59992;47.490;8.736;2022-11-12T06:28:12;20.70;;;9.10;;
72117;SDS011;59992;47.490;8.736;2022-11-12T06:31:00;19.00;;;9.10;;
72117;SDS011;59992;47.490;8.736;2022-11-12T06:33:48;17.70;;;8.30;;
72117;SDS011;59992;47.490;8.736;2022-11-12T06:36:37;15.80;;;7.60;;
72117;SDS011;59992;47.490;8.736;2022-11-12T06:39:25;17.40;;;8.10;;
72117;SDS011;59992;47.490;8.736;2022-11-12T06:42:01;17.30;;;7.90;;
72117;SDS011;59992;47.490;8.736;2022-11-12T06:44:30;17.20;;;8.50;;
72117;SDS011;59992;47.490;8.736;2022-11-12T06:46:57;15.10;;;8.20;;
72117;SDS011;59992;47.490;8.736;2022-11-12T06:49:24;15.40;;;7.50;;
72117;SDS011;59992;47.490;8.736;2022-11-12T06:51:52;15.80;;;7.40;;
72117;SDS011;59992;47.490;8.736;2022-11-12T06:54:19;15.70;;;7.40;;
72117;SDS011;59992;47.490;8.736;2022-11-12T06:56:47;16.00;;;7.10;;
72117;SDS011;59992;47.490;8.736;2022-11-12T06:59:14;18.00;;;7.40;;
72117;SDS011;59992;47.490;8.736;2022-11-12T07:01:42;17.10;;;7.20;;
72117;SDS011;59992;47.490;8.736;2022-11-12T07:04:10;15.20;;;7.40;;
72117;SDS011;59992;47.490;8.736;2022-11-12T07:06:37;14.30;;;7.00;;
72117;SDS011;59992;47.490;8.736;2022-11-12T07:09:05;16.10;;;7.40;;
72117;SDS011;59992;47.490;8.736;2022-11-12T07:11:33;15.70;;;7.90;;
72117;SDS011;59992;47.490;8.736;2022-11-12T07:14:01;16.00;;;7.20;;
72117;SDS011;59992;47.490;8.736;2022-11-12T07:16:30;14.30;;;6.80;;
72117;SDS011;59992;47.490;8.736;2022-11-12T07:18:57;15.60;;;7.20;;
72117;SDS011;59992;47.490;8.736;2022-11-12T07:21:25;15.60;;;7.00;;
72117;SDS011;59992;47.490;8.736;2022-11-12T07:23:53;11.90;;;5.90;;
72117;SDS011;59992;47.490;8.736;2022-11-12T07:26:21;15.00;;;7.00;;
72117;SDS011;59992;47.490;8.736;2022-11-12T07:28:50;14.60;;;6.90;;
72117;SDS011;59992;47.490;8.736;2022-11-12T07:31:18;14.20;;;5.70;;
72117;SDS011;59992;47.490;8.736;2022-11-12T07:33:47;13.30;;;6.10;;
72117;SDS011;59992;47.490;8.736;2022-11-12T07:36:16;15.50;;;6.40;;
72117;SDS011;59992;47.490;8.736;2022-11-12T07:38:44;14.50;;;6.10;;
72117;SDS011;59992;47.490;8.736;2022-11-12T07:41:15;14.90;;;6.50;;
72117;SDS011;59992;47.490;8.736;2022-11-12T07:43:44;13.80;;;6.20;;
72117;SDS011;59992;47.490;8.736;2022-11-12T07:46:14;14.20;;;5.90;;
72117;SDS011;59992;47.490;8.736;2022-11-12T07:48:43;15.10;;;5.80;;
72117;SDS011;59992;47.490;8.736;2022-11-12T07:51:12;14.40;;;6.20;;
72117;SDS011;59992;47.490;8.736;2022-11-12T07:53:40;16.90;;;6.30;;
72117;SDS011;59992;47.490;8.736;2022-11-12T07:56:09;10.60;;;5.30;;
72117;SDS011;59992;47.490;8.736;2022-11-12T07:58:38;10.70;;;5.30;;
72117;SDS011;59992;47.490;8.736;2022-11-12T08:01:09;12.70;;;5.80;;
72117;SDS011;59992;47.490;8.736;2022-11-12T08:03:37;9.90;;;4.90;;
72117;SDS011;59992;47.490;8.736;2022-11-12T08:06:05;11.20;;;5.90;;
72117;SDS011;59992;47.490;8.736;2022-11-12T08:08:33;12.10;;;6.20;;
72117;SDS011;59992;47.490;8.736;2022-11-12T08:11:01;12.00;;;5.70;;
72117;SDS011;59992;47.490;8.736;2022-11-12T08:13:28;11.70;;;5.60;;
72117;SDS011;59992;47.490;8.736;2022-11-12T08:15:57;10.30;;;5.60;;
72117;SDS011;59992;47.490;8.736;2022-11-12T08:18:24;12.70;;;5.80;;
72117;SDS011;59992;47.490;8.736;2022-11-12T08:20:52;10.40;;;5.30;;
72117;SDS011;59992;47.490;8.736;2022-11-12T08:23:25;11.10;;;5.70;;
72117;SDS011;59992;47.490;8.736;2022-11-12T08:25:57;11.10;;;5.40;;
72117;SDS011;59992;47.490;8.736;2022-11-12T08:28:27;9.80;;;4.90;;
72117;SDS011;59992;47.490;8.736;2022-11-12T08:30:57;8.80;;;5.10;;
72117;SDS011;59992;47.490;8.736;2022-11-12T08:33:28;11.50;;;6.20;;
72117;SDS011;59992;47.490;8.736;2022-11-12T08:35:55;11.90;;;6.30;;
72117;SDS011;59992;47.490;8.736;2022-11-12T08:38:23;11.90;;;6.40;;
72117;SDS011;59992;47.490;8.736;2022-11-12T08:40:51;11.80;;;6.00;;
72117;SDS011;59992;47.490;8.736;2022-11-12T08:43:18;11.70;;;6.50;;
72117;SDS011;59992;47.490;8.736;2022-11-12T08:45:45;11.30;;;6.00;;
72117;SDS011;59992;47.490;8.736;2022-11-12T08:48:15;10.50;;;5.80;;
72117;SDS011;59992;47.490;8.736;2022-11-12T08:50:43;9.80;;;5.80;;
72117;SDS011;59992;47.490;8.736;2022-11-12T08:53:11;10.60;;;5.60;;
72117;SDS011;59992;47.490;8.736;2022-11-12T08:55:40;10.90;;;6.00;;
72117;SDS011;59992;47.490;8.736;2022-11-12T08:58:07;9.70;;;5.80;;
72117;SDS011;59992;47.490;8.736;2022-11-12T09:00:36;13.40;;;6.70;;
72117;SDS011;59992;47.490;8.736;2022-11-12T09:03:05;10.70;;;6.20;;
72117;SDS011;59992;47.490;8.736;2022-11-12T09:05:38;9.80;;;5.80;;
72117;SDS011;59992;47.490;8.736;2022-11-12T09:08:06;10.50;;;5.70;;
72117;SDS011;59992;47.490;8.736;2022-11-12T09:10:35;10.60;;;5.80;;
72117;SDS011;59992;47.490;8.736;2022-11-12T09:13:03;10.60;;;5.60;;
72117;SDS011;59992;47.490;8.736;2022-11-12T09:15:31;9.70;;;6.20;;
72117;SDS011;59992;47.490;8.736;2022-11-12T09:17:59;11.80;;;6.00;;
72117;SDS011;59992;47.490;8.736;2022-11-12T09:20:30;10.60;;;6.10;;
72117;SDS011;59992;47.490;8.736;2022-11-12T09:22:58;9.90;;;5.10;;
72117;SDS011;59992;47.490;8.736;2022-11-12T09:25:26;10.40;;;5.70;;
72117;SDS011;59992;47.490;8.736;2022-11-12T09:27:54;10.20;;;5.60;;
72117;SDS011;59992;47.490;8.736;2022-11-12T09:30:21;10.00;;;5.50;;
72117;SDS011;59992;47.490;8.736;2022-11-12T09:32:49;10.70;;;6.00;;
72117;SDS011;59992;47.490;8.736;2022-11-12T09:35:21;11.30;;;6.10;;
72117;SDS011;59992;47.490;8.736;2022-11-12T09:37:50;10.70;;;5.80;;
72117;SDS011;59992;47.490;8.736;2022-11-12T09:40:18;9.60;;;5.60;;
72117;SDS011;59992;47.490;8.736;2022-11-12T09:43:09;11.60;;;5.90;;
72117;SDS011;59992;47.490;8.736;2022-11-12T09:46:03;9.50;;;4.70;;
72117;SDS011;59992;47.490;8.736;2022-11-12T09:49:03;11.90;;;5.60;;
72117;SDS011;59992;47.490;8.736;2022-11-12T09:51:58;9.80;;;5.50;;
72117;SDS011;59992;47.490;8.736;2022-11-12T09:54:51;10.10;;;5.40;;
72117;SDS011;59992;47.490;8.736;2022-11-12T09:57:46;11.00;;;6.10;;
72117;SDS011;59992;47.490;8.736;2022-11-12T10:00:34;11.30;;;5.60;;
72117;SDS011;59992;47.490;8.736;2022-11-12T10:03:26;10.30;;;6.00;;
72117;SDS011;59992;47.490;8.736;2022-11-12T10:06:23;9.30;;;4.90;;
72117;SDS011;59992;47.490;8.736;2022-11-12T10:09:15;10.20;;;4.80;;
72117;SDS011;59992;47.490;8.736;2022-11-12T10:12:09;11.80;;;5.40;;
72117;SDS011;59992;47.490;8.736;2022-11-12T10:15:37;13.10;;;6.60;;
72117;SDS011;59992;47.490;8.736;2022-11-12T10:19:00;14.00;;;6.20;;
72117;SDS011;59992;47.490;8.736;2022-11-12T10:22:17;14.00;;;6.90;;
72117;SDS011;59992;47.490;8.736;2022-11-12T10:25:18;13.20;;;7.10;;
72117;SDS011;59992;47.490;8.736;2022-11-12T10:28:10;12.80;;;7.00;;
72117;SDS011;59992;47.490;8.736;2022-11-12T10:31:09;15.90;;;7.80;;
72117;SDS011;59992;47.490;8.736;2022-11-12T10:34:07;13.70;;;6.30;;
72117;SDS011;59992;47.490;8.736;2022-11-12T10:37:03;13.60;;;7.10;;
72117;SDS011;59992;47.490;8.736;2022-11-12T10:39:53;15.20;;;7.50;;
72117;SDS011;59992;47.490;8.736;2022-11-12T10:42:54;15.40;;;8.10;;
72117;SDS011;59992;47.490;8.736;2022-11-12T10:45:45;16.60;;;8.60;;
72117;SDS011;59992;47.490;8.736;2022-11-12T10:48:34;16.90;;;8.30;;
72117;SDS011;59992;47.490;8.736;2022-11-12T10:51:24;14.80;;;7.60;;
72117;SDS011;59992;47.490;8.736;2022-11-12T10:57:23;15.70;;;8.70;;
72117;SDS011;59992;47.490;8.736;2022-11-12T11:00:15;13.60;;;7.70;;
72117;SDS011;59992;47.490;8.736;2022-11-12T11:03:09;13.50;;;7.20;;
72117;SDS011;59992;47.490;8.736;2022-11-12T11:06:06;13.80;;;6.80;;
72117;SDS011;59992;47.490;8.736;2022-11-12T11:09:12;15.40;;;7.20;;
72117;SDS011;59992;47.490;8.736;2022-11-12T11:12:02;13.60;;;7.60;;
72117;SDS011;59992;47.490;8.736;2022-11-12T11:15:04;16.70;;;8.10;;
72117;SDS011;59992;47.490;8.736;2022-11-12T11:17:54;13.40;;;7.60;;
72117;SDS011;59992;47.490;8.736;2022-11-12T11:20:43;11.00;;;6.20;;
72117;SDS011;59992;47.490;8.736;2022-11-12T11:23:36;11.90;;;6.00;;
72117;SDS011;59992;47.490;8.736;2022-11-12T11:26:34;15.10;;;7.80;;
72117;SDS011;59992;47.490;8.736;2022-11-12T11:29:40;14.60;;;7.50;;
72117;SDS011;59992;47.490;8.736;2022-11-12T11:32:44;13.30;;;6.90;;
72117;SDS011;59992;47.490;8.736;2022-11-12T11:35:47;12.40;;;6.70;;
72117;SDS011;59992;47.490;8.736;2022-11-12T11:38:53;14.50;;;7.30;;
72117;SDS011;59992;47.490;8.736;2022-11-12T11:41:48;22.10;;;7.40;;
72117;SDS011;59992;47.490;8.736;2022-11-12T11:44:50;14.40;;;6.80;;
72117;SDS011;59992;47.490;8.736;2022-11-12T11:47:50;13.60;;;7.30;;
72117;SDS011;59992;47.490;8.736;2022-11-12T11:50:44;15.50;;;7.90;;
72117;SDS011;59992;47.490;8.736;2022-11-12T11:53:46;13.30;;;7.10;;
72117;SDS011;59992;47.490;8.736;2022-11-12T11:56:47;14.20;;;7.30;;
72117;SDS011;59992;47.490;8.736;2022-11-12T11:59:41;12.60;;;6.50;;
72117;SDS011;59992;47.490;8.736;2022-11-12T12:02:53;14.70;;;8.00;;
72117;SDS011;59992;47.490;8.736;2022-11-12T12:06:01;14.90;;;7.70;;
72117;SDS011;59992;47.490;8.736;2022-11-12T12:09:15;15.50;;;8.10;;
72117;SDS011;59992;47.490;8.736;2022-11-12T12:12:17;14.00;;;7.60;;
72117;SDS011;59992;47.490;8.736;2022-11-12T12:15:22;13.60;;;7.40;;
72117;SDS011;59992;47.490;8.736;2022-11-12T12:18:35;13.90;;;7.80;;
72117;SDS011;59992;47.490;8.736;2022-11-12T12:21:28;16.70;;;8.40;;
72117;SDS011;59992;47.490;8.736;2022-11-12T12:24:21;14.70;;;7.70;;
72117;SDS011;59992;47.490;8.736;2022-11-12T12:27:14;16.20;;;7.60;;
72117;SDS011;59992;47.490;8.736;2022-11-12T12:30:13;15.30;;;7.50;;
72117;SDS011;59992;47.490;8.736;2022-11-12T12:33:07;14.60;;;7.80;;
72117;SDS011;59992;47.490;8.736;2022-11-12T12:36:11;14.70;;;8.00;;
72117;SDS011;59992;47.490;8.736;2022-11-12T12:39:08;15.60;;;7.60;;
72117;SDS011;59992;47.490;8.736;2022-11-12T12:42:02;12.40;;;6.60;;
72117;SDS011;59992;47.490;8.736;2022-11-12T12:44:58;14.10;;;7.50;;
72117;SDS011;59992;47.490;8.736;2022-11-12T12:47:53;13.40;;;7.20;;
72117;SDS011;59992;47.490;8.736;2022-11-12T12:50:44;13.40;;;6.90;;
72117;SDS011;59992;47.490;8.736;2022-11-12T12:53:33;15.10;;;7.70;;
72117;SDS011;59992;47.490;8.736;2022-11-12T12:56:41;13.80;;;7.80;;
72117;SDS011;59992;47.490;8.736;2022-11-12T12:59:32;14.60;;;8.10;;
72117;SDS011;59992;47.490;8.736;2022-11-12T13:02:21;14.60;;;8.10;;
72117;SDS011;59992;47.490;8.736;2022-11-12T13:05:25;13.50;;;7.80;;
72117;SDS011;59992;47.490;8.736;2022-11-12T13:08:18;15.80;;;7.80;;
72117;SDS011;59992;47.490;8.736;2022-11-12T13:11:10;15.40;;;7.50;;
72117;SDS011;59992;47.490;8.736;2022-11-12T13:14:52;13.40;;;7.50;;
72117;SDS011;59992;47.490;8.736;2022-11-12T13:17:55;15.30;;;8.40;;
72117;SDS011;59992;47.490;8.736;2022-11-12T13:20:44;16.70;;;7.70;;
72117;SDS011;59992;47.490;8.736;2022-11-12T13:23:57;16.90;;;8.60;;
72117;SDS011;59992;47.490;8.736;2022-11-12T13:26:55;16.40;;;7.90;;
72117;SDS011;59992;47.490;8.736;2022-11-12T13:29:44;15.80;;;8.50;;
72117;SDS011;59992;47.490;8.736;2022-11-12T13:32:34;15.30;;;8.10;;
72117;SDS011;59992;47.490;8.736;2022-11-12T13:35:27;17.00;;;8.40;;
72117;SDS011;59992;47.490;8.736;2022-11-12T13:38:17;15.50;;;8.60;;
72117;SDS011;59992;47.490;8.736;2022-11-12T13:41:07;14.90;;;8.40;;
72117;SDS011;59992;47.490;8.736;2022-11-12T13:44:03;16.40;;;8.40;;
72117;SDS011;59992;47.490;8.736;2022-11-12T13:46:54;13.70;;;7.00;;
72117;SDS011;59992;47.490;8.736;2022-11-12T13:49:43;13.80;;;7.00;;
72117;SDS011;59992;47.490;8.736;2022-11-12T13:52:32;17.30;;;9.20;;
72117;SDS011;59992;47.490;8.736;2022-11-12T13:55:21;17.00;;;9.20;;
72117;SDS011;59992;47.490;8.736;2022-11-12T13:58:15;17.00;;;9.20;;
72117;SDS011;59992;47.490;8.736;2022-11-12T14:01:11;18.00;;;9.20;;
72117;SDS011;59992;47.490;8.736;2022-11-12T14:03:59;15.20;;;8.00;;
72117;SDS011;59992;47.490;8.736;2022-11-12T14:06:48;13.80;;;7.60;;
72117;SDS011;59992;47.490;8.736;2022-11-12T14:09:48;16.20;;;8.80;;
72117;SDS011;59992;47.490;8.736;2022-11-12T14:12:53;17.90;;;9.30;;
72117;SDS011;59992;47.490;8.736;2022-11-12T14:16:10;15.70;;;8.70;;
72117;SDS011;59992;47.490;8.736;2022-11-12T14:19:14;18.20;;;8.80;;
72117;SDS011;59992;47.490;8.736;2022-11-12T14:22:13;18.80;;;9.30;;
72117;SDS011;59992;47.490;8.736;2022-11-12T14:25:09;18.10;;;8.40;;
72117;SDS011;59992;47.490;8.736;2022-11-12T14:28:00;17.50;;;9.60;;
72117;SDS011;59992;47.490;8.736;2022-11-12T14:30:49;16.00;;;8.60;;
72117;SDS011;59992;47.490;8.736;2022-11-12T14:33:37;20.40;;;9.80;;
72117;SDS011;59992;47.490;8.736;2022-11-12T14:36:26;19.50;;;9.60;;
72117;SDS011;59992;47.490;8.736;2022-11-12T14:39:16;17.60;;;9.20;;
72117;SDS011;59992;47.490;8.736;2022-11-12T14:42:04;17.70;;;8.80;;
72117;SDS011;59992;47.490;8.736;2022-11-12T14:45:01;19.70;;;9.70;;
72117;SDS011;59992;47.490;8.736;2022-11-12T14:47:50;20.80;;;9.60;;
72117;SDS011;59992;47.490;8.736;2022-11-12T14:50:40;19.70;;;9.20;;
72117;SDS011;59992;47.490;8.736;2022-11-12T14:53:30;20.30;;;9.00;;
72117;SDS011;59992;47.490;8.736;2022-11-12T14:56:25;15.90;;;8.40;;
72117;SDS011;59992;47.490;8.736;2022-11-12T14:59:16;15.30;;;8.80;;
72117;SDS011;59992;47.490;8.736;2022-11-12T15:02:06;17.60;;;9.50;;
72117;SDS011;59992;47.490;8.736;2022-11-12T15:04:58;18.00;;;9.20;;
72117;SDS011;59992;47.490;8.736;2022-11-12T15:07:51;18.10;;;8.70;;
72117;SDS011;59992;47.490;8.736;2022-11-12T15:10:42;19.80;;;9.30;;
72117;SDS011;59992;47.490;8.736;2022-11-12T15:13:36;18.20;;;9.60;;
72117;SDS011;59992;47.490;8.736;2022-11-12T15:16:27;18.40;;;9.40;;
72117;SDS011;59992;47.490;8.736;2022-11-12T15:19:19;17.10;;;9.00;;
72117;SDS011;59992;47.490;8.736;2022-11-12T15:22:17;18.30;;;9.20;;
72117;SDS011;59992;47.490;8.736;2022-11-12T15:25:15;19.50;;;9.20;;
72117;SDS011;59992;47.490;8.736;2022-11-12T15:28:18;18.30;;;9.60;;
72117;SDS011;59992;47.490;8.736;2022-11-12T15:31:15;17.60;;;9.10;;
72117;SDS011;59992;47.490;8.736;2022-11-12T15:34:23;19.00;;;9.60;;
72117;SDS011;59992;47.490;8.736;2022-11-12T15:37:20;21.10;;;10.20;;
72117;SDS011;59992;47.490;8.736;2022-11-12T15:40:14;22.00;;;10.10;;
72117;SDS011;59992;47.490;8.736;2022-11-12T15:43:09;22.90;;;10.10;;
72117;SDS011;59992;47.490;8.736;2022-11-12T15:46:00;21.60;;;9.90;;
72117;SDS011;59992;47.490;8.736;2022-11-12T15:48:49;25.50;;;12.10;;
72117;SDS011;59992;47.490;8.736;2022-11-12T15:51:38;25.80;;;10.60;;
72117;SDS011;59992;47.490;8.736;2022-11-12T15:54:26;22.80;;;10.80;;
72117;SDS011;59992;47.490;8.736;2022-11-12T15:57:14;23.70;;;10.20;;
72117;SDS011;59992;47.490;8.736;2022-11-12T16:00:09;24.10;;;10.70;;
72117;SDS011;59992;47.490;8.736;2022-11-12T16:03:08;25.30;;;11.60;;
72117;SDS011;59992;47.490;8.736;2022-11-12T16:05:59;24.80;;;11.10;;
72117;SDS011;59992;47.490;8.736;2022-11-12T16:08:47;22.80;;;10.90;;
72117;SDS011;59992;47.490;8.736;2022-11-12T16:11:35;22.60;;;11.00;;
72117;SDS011;59992;47.490;8.736;2022-11-12T16:14:23;26.10;;;12.10;;
72117;SDS011;59992;47.490;8.736;2022-11-12T16:17:12;23.30;;;10.70;;
72117;SDS011;59992;47.490;8.736;2022-11-12T16:20:07;24.60;;;10.20;;
72117;SDS011;59992;47.490;8.736;2022-11-12T16:23:00;25.00;;;11.50;;
72117;SDS011;59992;47.490;8.736;2022-11-12T16:25:48;27.00;;;11.90;;
72117;SDS011;59992;47.490;8.736;2022-11-12T16:28:36;28.70;;;12.20;;
72117;SDS011;59992;47.490;8.736;2022-11-12T16:31:24;24.10;;;11.30;;
72117;SDS011;59992;47.490;8.736;2022-11-12T16:34:12;27.60;;;11.70;;
72117;SDS011;59992;47.490;8.736;2022-11-12T16:37:01;27.90;;;11.80;;